createdAt,value
2022-12-18T00:00:10.209Z,99651.56
2022-12-18T00:03:00.051Z,99653.88
2022-12-18T00:05:28.353Z,99653.91
2022-12-18T00:07:56.842Z,99654.34
2022-12-18T00:10:25.014Z,99647.78
2022-12-18T00:12:53.571Z,99657.69
2022-12-18T00:15:21.804Z,99661.88
2022-12-18T00:17:50.390Z,99666.84
2022-12-18T00:20:26.615Z,99669.25
2022-12-18T00:22:55.170Z,99669.94
2022-12-18T00:25:23.686Z,99675.50
2022-12-18T00:27:52.399Z,99669.53
2022-12-18T00:30:20.632Z,99681.06
2022-12-18T00:32:48.990Z,99678.88
2022-12-18T00:35:17.191Z,99675.16
2022-12-18T00:37:47.076Z,99672.63
2022-12-18T00:40:15.364Z,99672.47
2022-12-18T00:42:58.003Z,99675.44
2022-12-18T00:45:27.377Z,99692.81
2022-12-18T00:47:56.279Z,99691.88
2022-12-18T00:50:24.750Z,99697.53
2022-12-18T00:52:54.897Z,99702.13
2022-12-18T00:55:23.746Z,99705.06
2022-12-18T00:57:53.302Z,99705.03
2022-12-18T01:00:21.988Z,99702.34
2022-12-18T01:02:50.629Z,99711.84
2022-12-18T01:05:19.189Z,99715.38
2022-12-18T01:07:47.542Z,99715.91
2022-12-18T01:10:17.209Z,99718.22
2022-12-18T01:12:45.786Z,99721.19
2022-12-18T01:15:15.601Z,99722.94
2022-12-18T01:17:44.297Z,99718.78
2022-12-18T01:20:13.629Z,99717.88
2022-12-18T01:22:42.196Z,99714.50
2022-12-18T01:25:11.037Z,99721.94
2022-12-18T01:27:40.828Z,99728.28
2022-12-18T01:30:10.086Z,99719.63
2022-12-18T01:32:38.571Z,99724.63
2022-12-18T01:35:08.218Z,99724.94
2022-12-18T01:37:36.655Z,99725.81
2022-12-18T01:40:05.469Z,99725.00
2022-12-18T01:42:33.948Z,99732.31
2022-12-18T01:45:06.909Z,99735.22
2022-12-18T01:47:40.042Z,99733.19
2022-12-18T01:50:13.025Z,99736.69
2022-12-18T01:52:46.697Z,99737.81
2022-12-18T01:55:15.400Z,99735.66
2022-12-18T01:57:43.891Z,99743.50
2022-12-18T02:00:16.610Z,99742.34
2022-12-18T02:02:46.686Z,99751.63
2022-12-18T02:05:19.140Z,99752.31
2022-12-18T02:07:55.826Z,99757.88
2022-12-18T02:10:28.128Z,99769.50
2022-12-18T02:13:04.155Z,99770.16
2022-12-18T02:15:38.647Z,99778.59
2022-12-18T02:18:10.527Z,99775.59
2022-12-18T02:20:41.819Z,99784.78
2022-12-18T02:23:13.836Z,99787.56
2022-12-18T02:26:07.171Z,99786.22
2022-12-18T02:28:38.539Z,99786.25
2022-12-18T02:31:09.184Z,99797.88
2022-12-18T02:33:38.668Z,99788.41
2022-12-18T02:36:08.076Z,99795.81
2022-12-18T02:38:37.350Z,99790.63
2022-12-18T02:41:07.783Z,99795.91
2022-12-18T02:43:36.329Z,99792.53
2022-12-18T02:46:27.414Z,99801.59
2022-12-18T02:48:58.960Z,99811.16
2022-12-18T02:51:32.718Z,99819.81
2022-12-18T02:54:06.496Z,99818.97
2022-12-18T02:56:39.008Z,99817.66
2022-12-18T02:59:11.086Z,99817.66
2022-12-18T03:01:46.533Z,99822.50
2022-12-18T03:04:16.949Z,99833.34
2022-12-18T03:06:48.908Z,99837.66
2022-12-18T03:09:22.887Z,99844.97
2022-12-18T03:12:15.005Z,99847.78
2022-12-18T03:14:45.670Z,99836.59
2022-12-18T03:17:18.001Z,99840.59
2022-12-18T03:19:48.515Z,99839.50
2022-12-18T03:22:17.111Z,99839.78
2022-12-18T03:24:46.850Z,99837.34
2022-12-18T03:27:18.351Z,99840.66
2022-12-18T03:29:50.118Z,99845.19
2022-12-18T03:32:21.886Z,99842.38
2022-12-18T03:34:53.378Z,99833.63
2022-12-18T03:37:21.509Z,99848.09
2022-12-18T03:39:50.077Z,99847.56
2022-12-18T03:42:25.564Z,99852.56
2022-12-18T03:44:59.947Z,99847.19
2022-12-18T03:47:30.401Z,99852.44
2022-12-18T03:50:01.806Z,99857.16
2022-12-18T03:52:33.212Z,99852.13
2022-12-18T03:55:04.228Z,99867.97
2022-12-18T03:57:34.756Z,99870.13
2022-12-18T04:00:06.616Z,99871.97
2022-12-18T04:02:36.261Z,99873.53
2022-12-18T04:05:07.913Z,99877.41
2022-12-18T04:07:36.252Z,99877.19
2022-12-18T04:10:07.483Z,99885.88
2022-12-18T04:12:37.049Z,99883.16
2022-12-18T04:15:06.544Z,99878.84
2022-12-18T04:17:34.778Z,99884.13
2022-12-18T04:20:03.200Z,99884.31
2022-12-18T04:22:31.344Z,99888.50
2022-12-18T04:24:59.968Z,99893.06
2022-12-18T04:27:28.106Z,99897.41
2022-12-18T04:29:58.058Z,99900.13
2022-12-18T04:32:26.190Z,99909.50
2022-12-18T04:34:54.769Z,99911.84
2022-12-18T04:37:22.852Z,99911.19
2022-12-18T04:39:51.560Z,99909.28
2022-12-18T04:42:19.704Z,99921.72
2022-12-18T04:44:48.214Z,99926.09
2022-12-18T04:47:17.695Z,99918.72
2022-12-18T04:49:46.178Z,99920.56
2022-12-18T04:52:14.302Z,99927.31
2022-12-18T04:54:42.725Z,99931.69
2022-12-18T04:57:11.128Z,99938.72
2022-12-18T04:59:39.608Z,99941.44
2022-12-18T05:02:08.094Z,99938.72
2022-12-18T05:04:37.980Z,99943.81
2022-12-18T05:07:06.217Z,99950.69
2022-12-18T05:09:34.639Z,99954.75
2022-12-18T05:12:02.878Z,99957.09
2022-12-18T05:14:31.291Z,99953.56
2022-12-18T05:17:01.257Z,99961.31
2022-12-18T05:19:29.902Z,99953.25
2022-12-18T05:21:59.871Z,99950.94
2022-12-18T05:24:28.375Z,99960.44
2022-12-18T05:26:56.529Z,99958.44
2022-12-18T05:29:25.040Z,99958.63
2022-12-18T05:31:53.449Z,99970.84
2022-12-18T05:34:21.915Z,99966.84
2022-12-18T05:36:50.311Z,99975.13
2022-12-18T05:39:20.106Z,99973.69
2022-12-18T05:41:48.366Z,99975.81
2022-12-18T05:44:16.749Z,99973.59
2022-12-18T05:46:45.097Z,99980.66
2022-12-18T05:49:13.509Z,99975.81
2022-12-18T05:51:41.880Z,99981.00
2022-12-18T05:54:11.181Z,99984.56
2022-12-18T05:56:45.488Z,99986.38
2022-12-18T05:59:17.137Z,99986.56
2022-12-18T06:01:45.290Z,99991.63
2022-12-18T06:04:14.006Z,99996.00
2022-12-18T06:06:42.582Z,99991.25
2022-12-18T06:09:19.281Z,99992.94
2022-12-18T06:11:47.913Z,100001.03
2022-12-18T06:14:18.273Z,100001.22
2022-12-18T06:16:46.678Z,100006.44
2022-12-18T06:19:17.974Z,99999.97
2022-12-18T06:21:46.544Z,100001.03
2022-12-18T06:24:14.888Z,100005.41
2022-12-18T06:26:44.874Z,100009.22
2022-12-18T06:29:13.179Z,100009.78
2022-12-18T06:31:41.795Z,100005.91
2022-12-18T06:34:10.195Z,100015.81
2022-12-18T06:36:38.695Z,100020.22
2022-12-18T06:39:07.115Z,100018.53
2022-12-18T06:41:36.089Z,100027.25
2022-12-18T06:44:07.013Z,100037.31
2022-12-18T06:46:35.319Z,100036.53
2022-12-18T06:49:03.555Z,100043.72
2022-12-18T06:51:32.181Z,100045.06
2022-12-18T06:54:00.412Z,100052.44
2022-12-18T06:56:29.150Z,100052.44
2022-12-18T06:58:57.385Z,100051.78
2022-12-18T07:01:27.315Z,100053.75
2022-12-18T07:03:56.844Z,100061.50
2022-12-18T07:06:27.057Z,100063.19
2022-12-18T07:08:56.423Z,100059.47
2022-12-18T07:11:25.316Z,100064.88
2022-12-18T07:13:54.996Z,100065.84
2022-12-18T07:16:25.507Z,100066.38
2022-12-18T07:18:56.791Z,100078.56
2022-12-18T07:21:25.863Z,100077.94
2022-12-18T07:23:54.036Z,100086.72
2022-12-18T07:26:23.840Z,100092.72
2022-12-18T07:28:52.119Z,100098.47
2022-12-18T07:31:22.491Z,100099.09
2022-12-18T07:33:51.920Z,100100.78
2022-12-18T07:36:24.981Z,100096.03
2022-12-18T07:38:53.878Z,100104.28
2022-12-18T07:41:22.517Z,100102.09
2022-12-18T07:43:50.687Z,100103.66
2022-12-18T07:46:19.550Z,100102.09
2022-12-18T07:48:49.687Z,100101.44
2022-12-18T07:51:19.742Z,100099.19
2022-12-18T07:53:52.183Z,100095.25
2022-12-18T07:56:27.793Z,100103.03
2022-12-18T07:58:56.988Z,100097.63
2022-12-18T08:01:26.000Z,100100.81
2022-12-18T08:03:54.480Z,100103.50
2022-12-18T08:06:24.467Z,100108.31
2022-12-18T08:08:55.574Z,100103.69
2022-12-18T08:11:24.235Z,100104.31
2022-12-18T08:13:52.808Z,100103.22
2022-12-18T08:16:21.744Z,100105.09
2022-12-18T08:18:50.531Z,100106.69
2022-12-18T08:21:22.311Z,100102.88
2022-12-18T08:23:51.662Z,100110.84
2022-12-18T08:26:22.465Z,100110.69
2022-12-18T08:28:51.075Z,100111.94
2022-12-18T08:31:19.771Z,100116.94
2022-12-18T08:33:50.706Z,100121.56
2022-12-18T08:36:19.396Z,100112.28
2022-12-18T08:38:47.847Z,100115.63
2022-12-18T08:41:18.066Z,100122.94
2022-12-18T08:44:05.461Z,100124.00
2022-12-18T08:46:36.970Z,100124.69
2022-12-18T08:49:06.074Z,100134.16
2022-12-18T08:51:34.825Z,100139.06
2022-12-18T08:54:03.046Z,100138.59
2022-12-18T08:56:33.105Z,100144.03
2022-12-18T08:59:02.713Z,100148.09
2022-12-18T09:01:31.352Z,100152.81
2022-12-18T09:04:00.372Z,100151.03
2022-12-18T09:06:28.921Z,100157.94
2022-12-18T09:08:57.050Z,100167.13
2022-12-18T09:11:28.522Z,100170.47
2022-12-18T09:13:56.957Z,100163.28
2022-12-18T09:16:32.387Z,100168.34
2022-12-18T09:19:02.094Z,100166.22
2022-12-18T09:21:33.217Z,100173.16
2022-12-18T09:24:03.413Z,100175.34
2022-12-18T09:26:32.047Z,100166.13
2022-12-18T09:29:00.285Z,100160.28
2022-12-18T09:31:30.200Z,100157.38
2022-12-18T09:33:58.731Z,100157.50
2022-12-18T09:36:27.246Z,100158.53
2022-12-18T09:38:55.929Z,100167.19
2022-12-18T09:41:37.519Z,100162.19
2022-12-18T09:44:11.826Z,100168.94
2022-12-18T09:46:46.876Z,100163.19
2022-12-18T09:49:18.541Z,100167.97
2022-12-18T09:51:51.424Z,100170.81
2022-12-18T09:54:24.432Z,100175.03
2022-12-18T09:56:53.001Z,100175.25
2022-12-18T09:59:26.014Z,100167.50
2022-12-18T10:01:56.148Z,100173.25
2022-12-18T10:04:24.689Z,100171.03
2022-12-18T10:06:57.450Z,100169.53
2022-12-18T10:09:35.215Z,100174.59
2022-12-18T10:12:09.814Z,100168.06
2022-12-18T10:14:44.224Z,100156.75
2022-12-18T10:17:22.317Z,100151.44
2022-12-18T10:19:53.891Z,100155.47
2022-12-18T10:22:36.221Z,100157.09
2022-12-18T10:25:07.382Z,100157.03
2022-12-18T10:27:35.647Z,100146.81
2022-12-18T10:30:07.537Z,100141.13
2022-12-18T10:32:37.763Z,100132.47
2022-12-18T10:35:10.342Z,100137.28
2022-12-18T10:37:38.653Z,100135.19
2022-12-18T10:40:20.174Z,100136.03
2022-12-18T10:43:05.780Z,100129.63
2022-12-18T10:45:34.133Z,100129.38
2022-12-18T10:48:03.932Z,100128.53
2022-12-18T10:53:26.286Z,100128.84
2022-12-18T10:55:55.795Z,100130.81
2022-12-18T10:58:27.354Z,100132.44
2022-12-18T11:01:08.857Z,100123.22
2022-12-18T11:03:40.625Z,100122.81
2022-12-18T11:06:11.783Z,100127.16
2022-12-18T11:08:40.398Z,100105.38
2022-12-18T11:11:17.185Z,100111.03
2022-12-18T11:13:57.649Z,100103.88
2022-12-18T11:16:25.976Z,100113.84
2022-12-18T11:18:56.109Z,100096.56
2022-12-18T11:21:24.297Z,100108.41
2022-12-18T11:23:54.095Z,100101.56
2022-12-18T11:26:22.870Z,100106.09
2022-12-18T11:28:53.130Z,100116.50
2022-12-18T11:31:29.656Z,100119.41
2022-12-18T11:36:57.073Z,100116.72
2022-12-18T11:39:32.328Z,100121.31
2022-12-18T11:42:13.222Z,100118.19
2022-12-18T11:44:50.411Z,100119.63
2022-12-18T11:47:26.893Z,100126.81
2022-12-18T11:49:58.516Z,100134.06
2022-12-18T11:52:26.595Z,100128.91
2022-12-18T11:54:55.612Z,100122.13
2022-12-18T11:57:35.193Z,100128.44
2022-12-18T12:00:09.860Z,100125.66
2022-12-18T12:02:56.522Z,100125.50
2022-12-18T12:05:42.547Z,100128.41
2022-12-18T12:08:18.300Z,100131.88
2022-12-18T12:10:54.989Z,100143.94
2022-12-18T12:13:31.425Z,100142.69
2022-12-18T12:16:09.041Z,100140.59
2022-12-18T12:18:50.473Z,100144.16
2022-12-18T12:21:25.936Z,100134.16
2022-12-18T12:23:59.969Z,100140.59
2022-12-18T12:26:34.906Z,100143.53
2022-12-18T12:29:15.453Z,100149.94
2022-12-18T12:31:58.643Z,100150.75
2022-12-18T12:34:29.512Z,100157.00
2022-12-18T12:37:09.948Z,100156.19
2022-12-18T12:39:40.676Z,100163.97
2022-12-18T12:42:34.388Z,100166.81
2022-12-18T12:45:04.421Z,100167.91
2022-12-18T12:47:35.216Z,100158.22
2022-12-18T12:50:08.173Z,100157.56
2022-12-18T12:52:41.980Z,100166.16
2022-12-18T12:55:24.214Z,100168.09
2022-12-18T12:58:00.293Z,100169.22
2022-12-18T13:00:32.577Z,100170.34
2022-12-18T13:03:07.234Z,100172.75
2022-12-18T13:05:41.800Z,100170.31
2022-12-18T13:08:13.152Z,100172.66
2022-12-18T13:10:42.572Z,100170.06
2022-12-18T13:13:13.377Z,100169.19
2022-12-18T13:18:34.390Z,100171.31
2022-12-18T13:21:06.697Z,100185.41
2022-12-18T13:23:39.246Z,100181.03
2022-12-18T13:26:34.084Z,100185.25
2022-12-18T13:29:05.386Z,100182.91
2022-12-18T13:32:10.531Z,100189.19
2022-12-18T13:34:39.011Z,100191.22
2022-12-18T13:37:45.669Z,100199.09
2022-12-18T13:40:59.865Z,100185.94
2022-12-18T13:43:39.760Z,100192.00
2022-12-18T13:46:21.358Z,100204.50
2022-12-18T13:48:59.320Z,100198.28
2022-12-18T13:51:28.808Z,100207.31
2022-12-18T13:53:59.936Z,100203.38
2022-12-18T13:56:29.942Z,100190.78
2022-12-18T13:59:22.656Z,100190.72
2022-12-18T14:01:56.335Z,100194.16
2022-12-18T14:04:30.417Z,100197.38
2022-12-18T14:07:03.574Z,100184.59
2022-12-18T14:09:41.859Z,100194.22
2022-12-18T14:12:35.179Z,100197.03
2022-12-18T14:15:05.878Z,100198.69
2022-12-18T14:17:35.229Z,100202.59
2022-12-18T14:20:04.973Z,100199.47
2022-12-18T14:22:33.505Z,100203.97
2022-12-18T14:25:17.258Z,100201.34
2022-12-18T14:27:48.107Z,100202.72
2022-12-18T14:30:32.800Z,100192.22
2022-12-18T14:33:05.662Z,100191.78
2022-12-18T14:35:37.416Z,100204.66
2022-12-18T14:38:23.974Z,100201.66
2022-12-18T14:40:59.634Z,100198.91
2022-12-18T14:43:29.478Z,100211.13
2022-12-18T14:46:00.066Z,100202.50
2022-12-18T14:48:40.204Z,100214.06
2022-12-18T14:51:20.323Z,100210.34
2022-12-18T14:53:54.332Z,100218.44
2022-12-18T14:56:24.783Z,100222.94
2022-12-18T14:58:56.251Z,100226.22
2022-12-18T15:01:26.728Z,100218.56
2022-12-18T15:03:56.524Z,100224.69
2022-12-18T15:06:31.274Z,100232.63
2022-12-18T15:09:00.473Z,100233.88
2022-12-18T15:11:44.911Z,100238.25
2022-12-18T15:14:31.470Z,100237.63
2022-12-18T15:17:01.693Z,100235.19
2022-12-18T15:19:37.670Z,100232.72
2022-12-18T15:22:06.843Z,100233.78
2022-12-18T15:24:35.862Z,100243.13
2022-12-18T15:27:03.997Z,100245.34
2022-12-18T15:29:32.754Z,100257.59
2022-12-18T15:32:04.584Z,100253.91
2022-12-18T15:34:35.170Z,100252.38
2022-12-18T15:37:03.403Z,100248.44
2022-12-18T15:39:32.244Z,100259.06
2022-12-18T15:42:17.832Z,100258.88
2022-12-18T15:44:46.830Z,100256.69
2022-12-18T15:47:16.638Z,100259.31
2022-12-18T15:49:45.528Z,100252.78
2022-12-18T15:52:26.947Z,100253.25
2022-12-18T15:55:13.595Z,100259.53
2022-12-18T15:57:43.544Z,100267.94
2022-12-18T16:00:15.079Z,100262.72
2022-12-18T16:02:45.302Z,100262.63
2022-12-18T16:05:18.051Z,100269.34
2022-12-18T16:07:46.734Z,100280.19
2022-12-18T16:10:15.796Z,100278.19
2022-12-18T16:12:44.371Z,100282.13
2022-12-18T16:15:22.453Z,100274.69
2022-12-18T16:17:53.873Z,100282.16
2022-12-18T16:20:24.161Z,100293.59
2022-12-18T16:22:53.372Z,100288.38
2022-12-18T16:25:23.004Z,100279.63
2022-12-18T16:27:51.696Z,100286.97
2022-12-18T16:30:22.315Z,100286.09
2022-12-18T16:32:50.735Z,100288.34
2022-12-18T16:35:20.747Z,100290.06
2022-12-18T16:37:49.519Z,100274.84
2022-12-18T16:40:19.186Z,100284.16
2022-12-18T16:42:48.292Z,100283.88
2022-12-18T16:45:18.573Z,100299.03
2022-12-18T16:47:47.730Z,100293.06
2022-12-18T16:50:16.374Z,100289.41
2022-12-18T16:52:46.265Z,100284.13
2022-12-18T16:55:14.810Z,100277.59
2022-12-18T16:57:43.398Z,100277.53
2022-12-18T17:00:13.543Z,100276.50
2022-12-18T17:02:42.161Z,100263.53
2022-12-18T17:05:11.148Z,100257.66
2022-12-18T17:07:39.386Z,100252.28
2022-12-18T17:10:10.644Z,100253.75
2022-12-18T17:12:38.992Z,100251.16
2022-12-18T17:15:08.990Z,100249.78
2022-12-18T17:17:37.268Z,100227.25
2022-12-18T17:20:06.618Z,100245.06
2022-12-18T17:22:35.068Z,100233.00
2022-12-18T17:25:03.675Z,100230.59
2022-12-18T17:27:33.540Z,100238.00
2022-12-18T17:30:02.396Z,100243.16
2022-12-18T17:32:31.085Z,100237.69
2022-12-18T17:35:05.388Z,100244.38
2022-12-18T17:37:38.160Z,100236.28
2022-12-18T17:40:08.377Z,100233.81
2022-12-18T17:42:38.386Z,100250.66
2022-12-18T17:45:08.614Z,100249.00
2022-12-18T17:47:37.200Z,100263.53
2022-12-18T17:50:06.355Z,100269.69
2022-12-18T17:52:35.013Z,100271.47
2022-12-18T17:55:03.706Z,100262.81
2022-12-18T17:57:32.269Z,100266.31
2022-12-18T18:00:02.574Z,100261.47
2022-12-18T18:02:31.086Z,100269.38
2022-12-18T18:05:00.622Z,100272.56
2022-12-18T18:07:28.862Z,100268.53
2022-12-18T18:09:57.443Z,100277.19
2022-12-18T18:12:43.234Z,100268.84
2022-12-18T18:15:13.406Z,100269.56
2022-12-18T18:17:41.756Z,100253.69
2022-12-18T18:20:11.453Z,100258.88
2022-12-18T18:22:39.869Z,100255.13
2022-12-18T18:25:08.822Z,100259.84
2022-12-18T18:27:39.065Z,100261.97
2022-12-18T18:30:09.129Z,100269.53
2022-12-18T18:32:40.051Z,100265.81
2022-12-18T18:35:24.575Z,100263.88
2022-12-18T18:37:58.611Z,100277.91
2022-12-18T18:40:28.108Z,100280.03
2022-12-18T18:42:57.815Z,100280.28
2022-12-18T18:45:26.509Z,100280.84
2022-12-18T18:47:56.103Z,100274.56
2022-12-18T18:50:24.588Z,100279.84
2022-12-18T18:52:55.007Z,100274.84
2022-12-18T18:55:25.536Z,100283.44
2022-12-18T18:57:54.201Z,100285.41
2022-12-18T19:00:22.613Z,100293.16
2022-12-18T19:02:52.254Z,100301.94
2022-12-18T19:05:25.319Z,100303.72
2022-12-18T19:07:53.628Z,100316.16
2022-12-18T19:10:22.181Z,100307.91
2022-12-18T19:13:07.644Z,100304.22
2022-12-18T19:15:36.219Z,100310.09
2022-12-18T19:18:04.570Z,100315.25
2022-12-18T19:20:34.590Z,100312.59
2022-12-18T19:23:02.802Z,100311.25
2022-12-18T19:25:40.633Z,100309.00
2022-12-18T19:28:16.021Z,100304.00
2022-12-18T19:30:54.541Z,100314.84
2022-12-18T19:33:43.041Z,100320.50
2022-12-18T19:36:16.304Z,100319.25
2022-12-18T19:38:45.326Z,100328.34
2022-12-18T19:41:15.537Z,100318.72
2022-12-18T19:43:44.218Z,100319.50
2022-12-18T19:46:16.167Z,100327.31
2022-12-18T19:48:45.520Z,100328.28
2022-12-18T19:51:18.128Z,100327.09
2022-12-18T19:53:46.591Z,100318.34
2022-12-18T19:56:16.709Z,100321.09
2022-12-18T19:58:45.386Z,100305.00
2022-12-18T20:01:16.521Z,100303.91
2022-12-18T20:03:49.133Z,100308.94
2022-12-18T20:06:26.409Z,100305.34
2022-12-18T20:09:00.650Z,100308.09
2022-12-18T20:11:30.000Z,100307.13
2022-12-18T20:13:58.535Z,100304.66
2022-12-18T20:16:27.042Z,100312.19
2022-12-18T20:18:55.362Z,100318.59
2022-12-18T20:21:25.873Z,100315.59
2022-12-18T20:23:54.988Z,100311.53
2022-12-18T20:26:23.576Z,100309.22
2022-12-18T20:28:51.879Z,100301.75
2022-12-18T20:31:20.548Z,100306.97
2022-12-18T20:33:49.920Z,100312.16
2022-12-18T20:36:22.649Z,100301.09
2022-12-18T20:38:58.191Z,100296.31
2022-12-18T20:41:31.633Z,100300.41
2022-12-18T20:44:07.305Z,100303.91
2022-12-18T20:46:42.613Z,100289.53
2022-12-18T20:49:11.275Z,100285.44
2022-12-18T20:51:39.779Z,100282.19
2022-12-18T20:54:11.949Z,100279.22
2022-12-18T20:56:40.643Z,100264.91
2022-12-18T20:59:09.149Z,100272.78
2022-12-18T21:01:39.011Z,100274.22
2022-12-18T21:04:09.698Z,100270.09
2022-12-18T21:06:38.456Z,100274.38
2022-12-18T21:09:06.989Z,100277.41
2022-12-18T21:11:54.732Z,100280.09
2022-12-18T21:14:24.702Z,100274.53
2022-12-18T21:16:56.632Z,100275.59
2022-12-18T21:19:27.315Z,100270.66
2022-12-18T21:21:57.070Z,100266.78
2022-12-18T21:24:25.781Z,100265.56
2022-12-18T21:26:57.085Z,100272.19
2022-12-18T21:29:26.749Z,100260.56
2022-12-18T21:31:56.021Z,100262.41
2022-12-18T21:34:26.683Z,100259.03
2022-12-18T21:36:55.143Z,100264.13
2022-12-18T21:39:23.477Z,100259.75
2022-12-18T21:42:09.976Z,100271.34
2022-12-18T21:44:41.952Z,100270.16
2022-12-18T21:47:22.002Z,100270.75
2022-12-18T21:49:52.734Z,100274.50
2022-12-18T21:52:31.662Z,100270.16
2022-12-18T21:55:09.614Z,100269.06
2022-12-18T21:57:39.407Z,100272.69
2022-12-18T22:00:19.093Z,100272.09
2022-12-18T22:03:01.214Z,100267.88
2022-12-18T22:05:37.060Z,100264.59
2022-12-18T22:08:07.033Z,100275.22
2022-12-18T22:10:35.772Z,100265.56
2022-12-18T22:13:04.501Z,100270.03
2022-12-18T22:15:34.358Z,100264.69
2022-12-18T22:18:03.040Z,100259.88
2022-12-18T22:20:31.240Z,100263.66
2022-12-18T22:23:05.601Z,100261.44
2022-12-18T22:25:35.462Z,100263.25
2022-12-18T22:28:25.803Z,100259.88
2022-12-18T22:30:59.683Z,100258.38
2022-12-18T22:33:29.010Z,100265.56
2022-12-18T22:35:57.276Z,100268.22
2022-12-18T22:38:25.884Z,100266.38
2022-12-18T22:40:54.087Z,100265.56
2022-12-18T22:43:22.641Z,100264.91
2022-12-18T22:45:50.895Z,100274.22
2022-12-18T22:48:20.823Z,100268.00
2022-12-18T22:50:49.829Z,100258.56
2022-12-18T22:53:19.635Z,100260.84
2022-12-18T22:55:47.805Z,100255.66
2022-12-18T22:58:16.292Z,100249.38
2022-12-18T23:00:44.569Z,100250.78
2022-12-18T23:03:16.035Z,100252.69
2022-12-18T23:05:45.630Z,100252.22
2022-12-18T23:08:14.207Z,100251.44
2022-12-18T23:10:42.390Z,100259.53
2022-12-18T23:13:10.982Z,100254.91
2022-12-18T23:15:42.717Z,100244.84
2022-12-18T23:18:11.499Z,100251.78
2022-12-18T23:20:39.724Z,100246.13
2022-12-18T23:23:10.127Z,100259.13
2022-12-18T23:25:38.381Z,100255.16
2022-12-18T23:28:07.339Z,100256.38
2022-12-18T23:30:35.805Z,100257.81
2022-12-18T23:33:04.395Z,100258.69
2022-12-18T23:35:32.772Z,100255.53
2022-12-18T23:38:01.253Z,100256.63
2022-12-18T23:40:31.501Z,100249.84
2022-12-18T23:43:00.530Z,100250.69
2022-12-18T23:45:28.802Z,100253.97
2022-12-18T23:47:57.318Z,100244.66
2022-12-18T23:50:29.704Z,100235.34
2022-12-18T23:53:05.049Z,100236.41
2022-12-18T23:55:40.491Z,100237.34
2022-12-18T23:58:10.657Z,100233.28
